createdAt,value
2022-11-18T00:01:33.644Z,16.42
2022-11-18T00:04:03.363Z,17.60
2022-11-18T00:06:31.792Z,15.98
2022-11-18T00:09:01.661Z,16.27
2022-11-18T00:11:49.180Z,15.88
2022-11-18T00:14:27.731Z,17.05
2022-11-18T00:17:04.217Z,16.58
2022-11-18T00:19:39.626Z,17.25
2022-11-18T00:22:11.634Z,16.05
2022-11-18T00:24:40.482Z,14.45
2022-11-18T00:27:08.923Z,15.32
2022-11-18T00:29:38.263Z,15.27
2022-11-18T00:32:06.811Z,17.23
2022-11-18T00:34:36.564Z,16.13
2022-11-18T00:37:06.084Z,15.38
2022-11-18T00:39:34.883Z,14.40
2022-11-18T00:42:22.004Z,15.23
2022-11-18T00:44:50.963Z,15.88
2022-11-18T00:47:19.452Z,16.05
2022-11-18T00:49:48.285Z,15.95
2022-11-18T00:52:16.803Z,14.60
2022-11-18T00:54:45.608Z,16.58
2022-11-18T00:57:14.062Z,15.07
2022-11-18T00:59:43.912Z,15.73
2022-11-18T01:02:12.394Z,16.20
2022-11-18T01:04:41.254Z,14.80
2022-11-18T01:07:09.759Z,14.57
2022-11-18T01:09:38.603Z,14.70
2022-11-18T01:12:25.943Z,14.82
2022-11-18T01:14:54.774Z,13.95
2022-11-18T01:17:23.154Z,14.60
2022-11-18T01:19:51.993Z,14.13
2022-11-18T01:22:20.504Z,14.73
2022-11-18T01:24:50.383Z,13.80
2022-11-18T01:27:18.865Z,13.57
2022-11-18T01:29:47.665Z,13.75
2022-11-18T01:32:24.860Z,14.48
2022-11-18T01:34:54.454Z,13.10
2022-11-18T01:37:23.152Z,12.98
2022-11-18T01:39:52.022Z,13.43
2022-11-18T01:42:20.494Z,13.77
2022-11-18T01:45:27.816Z,12.65
2022-11-18T01:48:26.963Z,13.80
2022-11-18T01:51:05.393Z,11.48
2022-11-18T01:53:41.253Z,12.27
2022-11-18T01:56:15.853Z,12.45
2022-11-18T01:58:59.693Z,12.65
2022-11-18T02:01:30.284Z,11.98
2022-11-18T02:03:58.884Z,10.90
2022-11-18T02:06:27.644Z,11.50
2022-11-18T02:08:56.903Z,11.60
2022-11-18T02:11:44.995Z,11.75
2022-11-18T02:14:14.429Z,11.85
2022-11-18T02:17:08.667Z,11.95
2022-11-18T02:20:10.947Z,11.10
2022-11-18T02:23:00.680Z,12.68
2022-11-18T02:26:36.132Z,12.55
2022-11-18T02:29:18.649Z,12.40
2022-11-18T02:32:02.548Z,11.52
2022-11-18T02:34:41.551Z,11.82
2022-11-18T02:37:23.258Z,12.38
2022-11-18T02:40:07.217Z,12.23
2022-11-18T02:42:36.499Z,11.77
2022-11-18T02:45:09.439Z,12.10
2022-11-18T02:47:37.957Z,11.70
2022-11-18T02:50:10.919Z,12.20
2022-11-18T02:52:39.739Z,11.30
2022-11-18T02:55:10.753Z,10.35
2022-11-18T02:57:39.258Z,12.05
2022-11-18T03:00:08.949Z,11.60
2022-11-18T03:02:46.821Z,10.43
2022-11-18T03:05:43.788Z,11.88
2022-11-18T03:08:15.678Z,11.18
2022-11-18T03:10:53.118Z,10.73
2022-11-18T03:13:28.929Z,10.55
2022-11-18T03:16:15.147Z,10.70
2022-11-18T03:18:52.828Z,10.32
2022-11-18T03:21:38.268Z,11.63
2022-11-18T03:24:26.268Z,10.82
2022-11-18T03:27:20.058Z,10.70
2022-11-18T03:30:04.969Z,10.30
2022-11-18T03:32:37.779Z,10.65
2022-11-18T03:35:27.529Z,11.15
2022-11-18T03:38:06.111Z,10.02
2022-11-18T03:40:34.589Z,9.23
2022-11-18T03:43:17.448Z,9.73
2022-11-18T03:45:55.539Z,9.57
2022-11-18T03:48:30.429Z,10.45
2022-11-18T03:51:03.268Z,9.75
2022-11-18T03:56:17.599Z,9.05
2022-11-18T03:59:21.269Z,8.88
2022-11-18T04:01:53.692Z,8.55
2022-11-18T04:04:23.599Z,10.13
2022-11-18T04:07:05.374Z,8.70
2022-11-18T04:09:45.737Z,9.25
2022-11-18T04:12:16.411Z,9.52
2022-11-18T04:14:59.740Z,8.32
2022-11-18T04:17:29.110Z,8.63
2022-11-18T04:19:57.599Z,8.45
2022-11-18T04:22:27.526Z,9.13
2022-11-18T04:24:55.943Z,8.30
2022-11-18T04:27:24.768Z,9.02
2022-11-18T04:29:53.198Z,8.82
2022-11-18T04:32:21.996Z,8.75
2022-11-18T04:34:50.328Z,7.45
2022-11-18T04:37:20.047Z,8.70
2022-11-18T04:39:48.421Z,8.40
2022-11-18T04:42:17.118Z,7.68
2022-11-18T04:44:46.070Z,8.32
2022-11-18T04:47:15.819Z,8.32
2022-11-18T04:49:44.239Z,8.52
2022-11-18T04:52:13.040Z,7.72
2022-11-18T04:54:41.500Z,8.07
2022-11-18T04:57:12.030Z,8.73
2022-11-18T04:59:40.501Z,8.55
2022-11-18T05:02:09.929Z,9.00
2022-11-18T05:04:39.022Z,8.77
2022-11-18T05:07:08.422Z,8.45
2022-11-18T05:09:36.878Z,9.13
2022-11-18T05:12:24.429Z,8.95
2022-11-18T05:14:52.928Z,9.13
2022-11-18T05:17:22.109Z,9.23
2022-11-18T05:19:50.638Z,8.68
2022-11-18T05:22:19.358Z,9.63
2022-11-18T05:24:47.828Z,10.35
2022-11-18T05:27:16.717Z,10.13
2022-11-18T05:29:45.247Z,11.20
2022-11-18T05:32:14.091Z,10.98
2022-11-18T05:34:42.644Z,9.95
2022-11-18T05:37:12.471Z,11.23
2022-11-18T05:39:41.029Z,11.55
2022-11-18T05:42:30.610Z,11.50
2022-11-18T05:44:59.221Z,12.82
2022-11-18T05:47:28.131Z,12.07
2022-11-18T05:49:56.558Z,11.73
2022-11-18T05:52:25.419Z,12.55
2022-11-18T05:54:53.919Z,13.27
2022-11-18T05:57:22.699Z,13.38
2022-11-18T05:59:51.177Z,13.98
2022-11-18T06:02:22.511Z,13.63
2022-11-18T06:05:00.083Z,14.07
2022-11-18T06:07:40.128Z,14.60
2022-11-18T06:10:09.382Z,15.63
2022-11-18T06:12:42.001Z,14.88
2022-11-18T06:15:31.580Z,16.75
2022-11-18T06:18:09.569Z,15.75
2022-11-18T06:20:39.719Z,15.43
2022-11-18T06:23:08.590Z,16.05
2022-11-18T06:25:39.174Z,15.13
2022-11-18T06:28:08.029Z,17.13
2022-11-18T06:30:36.589Z,17.10
2022-11-18T06:33:05.374Z,15.82
2022-11-18T06:35:33.919Z,15.73
2022-11-18T06:38:02.844Z,18.42
2022-11-18T06:40:34.683Z,17.77
2022-11-18T06:43:28.413Z,17.27
2022-11-18T06:46:19.791Z,17.05
2022-11-18T06:48:49.019Z,17.23
2022-11-18T06:51:17.845Z,16.23
2022-11-18T06:53:47.879Z,17.67
2022-11-18T06:56:17.009Z,17.67
2022-11-18T06:58:46.122Z,17.60
2022-11-18T07:01:23.088Z,19.13
2022-11-18T07:03:53.231Z,17.20
2022-11-18T07:06:24.790Z,17.50
2022-11-18T07:08:53.900Z,17.05
2022-11-18T07:11:25.250Z,18.40
2022-11-18T07:13:54.340Z,17.67
2022-11-18T07:16:25.332Z,17.35
2022-11-18T07:18:55.303Z,17.05
2022-11-18T07:21:29.089Z,15.90
2022-11-18T07:23:58.277Z,18.15
2022-11-18T07:26:26.850Z,18.33
2022-11-18T07:28:55.849Z,17.85
2022-11-18T07:31:24.450Z,19.17
2022-11-18T07:33:56.350Z,19.17
2022-11-18T07:36:33.915Z,20.17
2022-11-18T07:39:06.552Z,20.23
2022-11-18T07:41:35.540Z,19.80
2022-11-18T07:44:05.700Z,19.10
2022-11-18T07:46:36.759Z,20.35
2022-11-18T07:49:08.936Z,21.42
2022-11-18T07:51:39.888Z,21.40
2022-11-18T07:54:17.491Z,23.75
2022-11-18T07:56:46.051Z,21.92
2022-11-18T07:59:14.947Z,22.50
2022-11-18T08:01:43.531Z,22.83
2022-11-18T08:04:12.944Z,26.10
2022-11-18T08:06:41.641Z,25.15
2022-11-18T08:09:10.800Z,24.77
2022-11-18T08:11:41.301Z,26.13
2022-11-18T08:14:10.249Z,24.65
2022-11-18T08:16:38.848Z,29.45
2022-11-18T08:19:07.831Z,28.27
2022-11-18T08:21:36.469Z,30.38
2022-11-18T08:24:06.369Z,35.13
2022-11-18T08:26:34.950Z,36.38
2022-11-18T08:29:03.869Z,34.15
2022-11-18T08:31:32.470Z,31.90
2022-11-18T08:34:04.581Z,28.75
2022-11-18T08:36:37.258Z,30.52
2022-11-18T08:39:08.855Z,29.58
2022-11-18T08:41:40.538Z,29.08
2022-11-18T08:44:14.550Z,29.75
2022-11-18T08:46:47.226Z,28.90
2022-11-18T08:51:45.371Z,28.02
2022-11-18T08:54:15.541Z,29.42
2022-11-18T08:56:44.052Z,29.08
2022-11-18T08:59:13.124Z,28.65
2022-11-18T09:01:43.923Z,27.73
2022-11-18T09:04:14.411Z,28.20
2022-11-18T09:06:43.799Z,30.25
2022-11-18T09:09:12.823Z,31.13
2022-11-18T09:11:41.561Z,28.90
2022-11-18T09:15:11.947Z,30.80
2022-11-18T09:17:03.066Z,30.77
2022-11-18T09:19:47.195Z,29.77
2022-11-18T09:24:45.211Z,28.85
2022-11-18T09:27:16.965Z,30.15
2022-11-18T09:29:46.674Z,29.90
2022-11-18T09:32:15.376Z,29.98
2022-11-18T09:34:44.368Z,30.95
2022-11-18T09:37:13.490Z,30.08
2022-11-18T09:39:42.463Z,29.65
2022-11-18T09:42:35.461Z,29.52
2022-11-18T09:45:23.960Z,29.83
2022-11-18T09:47:57.122Z,30.70
2022-11-18T09:53:22.889Z,29.85
2022-11-18T09:55:52.922Z,29.05
2022-11-18T09:58:42.278Z,30.27
2022-11-18T10:01:18.898Z,29.98
2022-11-18T10:03:47.601Z,28.70
2022-11-18T10:06:25.449Z,29.98
2022-11-18T10:09:41.570Z,30.92
2022-11-18T10:12:36.200Z,28.85
2022-11-18T10:15:43.849Z,26.85
2022-11-18T10:22:11.720Z,27.92
2022-11-18T10:24:50.902Z,29.65
2022-11-18T10:27:19.641Z,28.27
2022-11-18T10:29:57.525Z,28.98
2022-11-18T10:32:27.671Z,27.90
2022-11-18T10:35:00.170Z,28.38
2022-11-18T10:38:06.349Z,28.02
2022-11-18T10:40:29.174Z,29.00
2022-11-18T10:42:57.930Z,27.63
2022-11-18T10:45:32.343Z,27.90
2022-11-18T10:48:15.881Z,29.90
2022-11-18T10:50:55.613Z,29.55
2022-11-18T10:53:36.414Z,27.50
2022-11-18T10:56:11.223Z,28.48
2022-11-18T10:58:50.420Z,25.60
2022-11-18T11:01:24.530Z,26.65
2022-11-18T11:04:05.371Z,27.05
2022-11-18T11:06:39.355Z,26.55
2022-11-18T11:09:13.970Z,27.77
2022-11-18T11:12:01.507Z,25.35
2022-11-18T11:14:52.004Z,25.70
2022-11-18T11:17:40.288Z,24.48
2022-11-18T11:20:18.075Z,25.00
2022-11-18T11:22:47.155Z,24.90
2022-11-18T11:25:17.519Z,22.92
2022-11-18T11:30:54.054Z,24.77
2022-11-18T11:33:32.383Z,24.35
2022-11-18T11:36:42.356Z,24.63
2022-11-18T11:39:39.034Z,24.33
2022-11-18T11:42:45.864Z,25.55
2022-11-18T11:45:39.365Z,24.60
2022-11-18T11:48:32.335Z,25.60
2022-11-18T11:51:42.474Z,24.38
2022-11-18T11:54:42.396Z,25.02
2022-11-18T11:57:49.187Z,26.05
2022-11-18T12:00:19.106Z,25.98
2022-11-18T12:03:23.018Z,26.40
2022-11-18T12:05:51.699Z,26.35
2022-11-18T12:08:27.985Z,24.95
2022-11-18T12:11:41.484Z,25.27
2022-11-18T12:14:49.002Z,25.63
2022-11-18T12:17:34.455Z,24.48
2022-11-18T12:20:41.638Z,23.30
2022-11-18T12:23:12.377Z,21.98
2022-11-18T12:26:03.268Z,22.42
2022-11-18T12:28:42.965Z,23.55
2022-11-18T12:31:19.416Z,21.25
2022-11-18T12:34:17.948Z,21.98
2022-11-18T12:36:48.051Z,22.85
2022-11-18T12:39:25.584Z,21.48
2022-11-18T12:42:13.794Z,20.90
2022-11-18T12:44:43.996Z,22.80
2022-11-18T12:47:17.564Z,21.95
2022-11-18T12:52:30.665Z,20.10
2022-11-18T12:55:20.127Z,20.35
2022-11-18T12:57:50.316Z,22.38
2022-11-18T13:00:24.791Z,21.67
2022-11-18T13:02:56.915Z,20.42
2022-11-18T13:05:33.552Z,19.38
2022-11-18T13:08:14.348Z,21.60
2022-11-18T13:10:54.506Z,19.48
2022-11-18T13:13:34.424Z,18.95
2022-11-18T13:16:42.815Z,19.13
2022-11-18T13:19:23.337Z,18.85
2022-11-18T13:22:15.335Z,18.63
2022-11-18T13:24:46.479Z,20.10
2022-11-18T13:27:36.237Z,18.95
2022-11-18T13:30:13.189Z,17.38
2022-11-18T13:32:46.221Z,17.88
2022-11-18T13:35:21.836Z,19.05
2022-11-18T13:37:59.818Z,17.33
2022-11-18T13:41:04.997Z,17.88
2022-11-18T13:43:36.697Z,16.80
2022-11-18T13:46:18.317Z,17.85
2022-11-18T13:48:56.847Z,17.60
2022-11-18T13:51:25.868Z,17.17
2022-11-18T13:53:54.509Z,17.73
2022-11-18T13:56:34.932Z,17.60
2022-11-18T13:59:21.105Z,16.92
2022-11-18T14:01:57.126Z,18.23
2022-11-18T14:04:32.140Z,16.35
2022-11-18T14:07:31.993Z,17.92
2022-11-18T14:10:06.896Z,17.38
2022-11-18T14:12:36.591Z,18.73
2022-11-18T14:15:30.009Z,19.00
2022-11-18T14:18:01.506Z,19.27
2022-11-18T14:20:30.986Z,18.00
2022-11-18T14:23:01.630Z,19.30
2022-11-18T14:25:35.689Z,19.33
2022-11-18T14:28:28.398Z,18.08
2022-11-18T14:31:28.766Z,18.02
2022-11-18T14:34:27.359Z,17.90
2022-11-18T14:36:57.087Z,17.70
2022-11-18T14:39:31.319Z,18.63
2022-11-18T14:41:59.938Z,17.67
2022-11-18T14:44:30.967Z,16.55
2022-11-18T14:47:02.790Z,16.77
2022-11-18T14:49:33.007Z,17.33
2022-11-18T14:52:02.922Z,17.65
2022-11-18T14:54:33.458Z,16.83
2022-11-18T14:57:04.485Z,16.02
2022-11-18T14:59:33.299Z,17.85
2022-11-18T15:02:02.480Z,15.52
2022-11-18T15:04:31.398Z,16.95
2022-11-18T15:06:59.970Z,17.17
2022-11-18T15:09:29.358Z,15.98
2022-11-18T15:11:57.840Z,16.15
2022-11-18T15:14:26.649Z,17.83
2022-11-18T15:16:55.178Z,16.35
2022-11-18T15:19:24.305Z,17.33
2022-11-18T15:21:53.227Z,16.77
2022-11-18T15:24:22.045Z,19.23
2022-11-18T15:26:50.579Z,18.33
2022-11-18T15:29:22.321Z,18.48
2022-11-18T15:31:51.108Z,17.92
2022-11-18T15:34:21.507Z,19.15
2022-11-18T15:36:50.538Z,17.42
2022-11-18T15:39:19.429Z,19.00
2022-11-18T15:41:47.907Z,17.48
2022-11-18T15:44:17.380Z,17.75
2022-11-18T15:46:48.329Z,17.75
2022-11-18T15:49:18.390Z,17.77
2022-11-18T15:51:47.587Z,17.73
2022-11-18T15:54:16.806Z,17.63
2022-11-18T15:56:46.017Z,18.15
2022-11-18T15:59:15.998Z,17.60
2022-11-18T16:01:47.361Z,17.50
2022-11-18T16:04:19.171Z,16.35
2022-11-18T16:06:48.567Z,15.40
2022-11-18T16:09:17.841Z,16.48
2022-11-18T16:12:05.280Z,17.15
2022-11-18T16:14:38.354Z,17.52
2022-11-18T16:17:07.401Z,16.92
2022-11-18T16:19:36.159Z,18.08
2022-11-18T16:22:05.370Z,15.90
2022-11-18T16:24:34.277Z,16.65
2022-11-18T16:27:04.766Z,15.32
2022-11-18T16:29:34.787Z,16.58
2022-11-18T16:32:03.737Z,16.17
2022-11-18T16:34:32.723Z,16.15
2022-11-18T16:37:01.531Z,14.88
2022-11-18T16:39:30.328Z,16.73
2022-11-18T16:42:07.409Z,17.02
2022-11-18T16:44:38.606Z,14.55
2022-11-18T16:47:13.724Z,14.40
2022-11-18T16:49:44.232Z,16.83
2022-11-18T16:52:13.000Z,16.08
2022-11-18T16:54:45.622Z,16.27
2022-11-18T16:57:14.957Z,14.82
2022-11-18T16:59:43.664Z,15.32
2022-11-18T17:02:13.471Z,16.75
2022-11-18T17:04:44.059Z,17.05
2022-11-18T17:07:13.508Z,16.25
2022-11-18T17:09:42.476Z,17.75
2022-11-18T17:12:10.976Z,17.08
2022-11-18T17:14:40.830Z,16.50
2022-11-18T17:17:09.261Z,17.35
2022-11-18T17:19:38.134Z,16.88
2022-11-18T17:22:06.749Z,17.33
2022-11-18T17:24:35.433Z,17.58
2022-11-18T17:27:04.494Z,17.05
2022-11-18T17:29:34.957Z,18.20
2022-11-18T17:32:03.438Z,18.17
2022-11-18T17:34:33.022Z,16.70
2022-11-18T17:37:06.428Z,18.13
2022-11-18T17:39:36.049Z,16.75
2022-11-18T17:42:14.139Z,17.35
2022-11-18T17:44:42.895Z,16.80
2022-11-18T17:47:11.229Z,17.40
2022-11-18T17:49:40.618Z,17.08
2022-11-18T17:52:09.374Z,17.25
2022-11-18T17:54:38.255Z,16.45
2022-11-18T17:57:07.404Z,18.70
2022-11-18T17:59:36.145Z,17.85
2022-11-18T18:02:04.635Z,17.60
2022-11-18T18:04:34.482Z,17.38
2022-11-18T18:07:03.246Z,18.10
2022-11-18T18:09:33.214Z,18.20
2022-11-18T18:12:21.575Z,18.40
2022-11-18T18:14:50.818Z,17.77
2022-11-18T18:17:19.213Z,17.13
2022-11-18T18:19:48.014Z,18.30
2022-11-18T18:22:16.458Z,17.45
2022-11-18T18:24:45.158Z,19.17
2022-11-18T18:27:13.729Z,19.58
2022-11-18T18:29:42.553Z,18.73
2022-11-18T18:32:11.135Z,18.63
2022-11-18T18:34:39.979Z,19.10
2022-11-18T18:37:08.387Z,19.48
2022-11-18T18:39:38.519Z,19.27
2022-11-18T18:42:07.199Z,20.33
2022-11-18T18:44:54.687Z,20.40
2022-11-18T18:47:23.118Z,20.65
2022-11-18T18:49:52.015Z,21.35
2022-11-18T18:52:20.563Z,20.58
2022-11-18T18:54:49.375Z,19.95
2022-11-18T18:57:17.795Z,20.48
2022-11-18T18:59:46.519Z,20.92
2022-11-18T19:02:15.105Z,20.50
2022-11-18T19:04:45.198Z,21.77
2022-11-18T19:07:13.699Z,21.20
2022-11-18T19:09:42.536Z,21.30
2022-11-18T19:12:29.968Z,21.50
2022-11-18T19:14:59.154Z,21.10
2022-11-18T19:17:27.757Z,20.38
2022-11-18T19:20:15.237Z,20.90
2022-11-18T19:22:44.214Z,21.08
2022-11-18T19:25:13.006Z,20.88
2022-11-18T19:27:41.445Z,19.50
2022-11-18T19:30:11.080Z,20.40
2022-11-18T19:32:40.058Z,21.60
2022-11-18T19:35:09.287Z,21.67
2022-11-18T19:37:37.818Z,21.38
2022-11-18T19:40:10.299Z,20.35
2022-11-18T19:42:39.883Z,20.95
2022-11-18T19:45:11.626Z,20.58
2022-11-18T19:47:40.243Z,21.65
2022-11-18T19:50:10.643Z,21.08
2022-11-18T19:52:39.114Z,19.40
2022-11-18T19:55:08.583Z,20.38
2022-11-18T19:57:37.058Z,20.45
2022-11-18T20:00:06.744Z,21.48
2022-11-18T20:02:40.730Z,20.25
2022-11-18T20:05:28.064Z,21.45
2022-11-18T20:07:56.699Z,21.23
2022-11-18T20:10:29.148Z,19.42
2022-11-18T20:15:28.415Z,20.98
2022-11-18T20:17:57.435Z,20.23
2022-11-18T20:20:26.206Z,20.92
2022-11-18T20:22:54.800Z,21.13
2022-11-18T20:25:23.737Z,20.63
2022-11-18T20:27:52.223Z,20.83
2022-11-18T20:30:21.380Z,20.00
2022-11-18T20:32:52.086Z,21.00
2022-11-18T20:35:21.045Z,18.77
2022-11-18T20:37:49.584Z,17.60
2022-11-18T20:40:18.497Z,19.88
2022-11-18T20:43:05.388Z,18.77
2022-11-18T20:45:34.136Z,20.38
2022-11-18T20:48:02.654Z,21.63
2022-11-18T20:50:31.619Z,19.80
2022-11-18T20:53:00.079Z,20.00
2022-11-18T20:55:29.525Z,18.75
2022-11-18T20:57:58.067Z,19.13
2022-11-18T21:00:28.075Z,21.23
2022-11-18T21:02:56.818Z,21.05
2022-11-18T21:05:27.519Z,19.30
2022-11-18T21:07:56.056Z,21.35
2022-11-18T21:10:25.824Z,19.45
2022-11-18T21:13:12.834Z,20.52
2022-11-18T21:15:43.416Z,19.38
2022-11-18T21:18:11.956Z,20.88
2022-11-18T21:20:59.436Z,18.48
2022-11-18T21:23:27.955Z,19.27
2022-11-18T21:25:56.747Z,19.17
2022-11-18T21:28:28.987Z,19.33
2022-11-18T21:30:57.846Z,20.42
2022-11-18T21:33:26.625Z,19.85
2022-11-18T21:35:59.046Z,20.80
2022-11-18T21:38:27.487Z,18.95
2022-11-18T21:41:06.027Z,19.20
2022-11-18T21:46:27.968Z,19.65
2022-11-18T21:49:00.075Z,19.25
2022-11-18T21:51:31.775Z,17.38
2022-11-18T21:54:01.091Z,18.35
2022-11-18T21:56:31.489Z,17.60
2022-11-18T21:59:01.509Z,18.95
2022-11-18T22:01:33.606Z,18.90
2022-11-18T22:04:04.714Z,18.77
2022-11-18T22:06:34.660Z,18.90
2022-11-18T22:09:06.212Z,21.35
2022-11-18T22:11:35.111Z,18.75
2022-11-18T22:14:04.902Z,19.30
2022-11-18T22:16:34.748Z,18.67
2022-11-18T22:19:08.012Z,19.40
2022-11-18T22:21:37.414Z,19.20
2022-11-18T22:24:07.105Z,20.17
2022-11-18T22:26:35.993Z,19.38
2022-11-18T22:29:04.521Z,18.52
2022-11-18T22:31:33.649Z,20.25
2022-11-18T22:34:02.182Z,19.85
2022-11-18T22:36:31.110Z,19.40
2022-11-18T22:39:00.507Z,19.80
2022-11-18T22:41:48.016Z,19.27
2022-11-18T22:44:18.228Z,18.85
2022-11-18T22:46:47.282Z,19.80
2022-11-18T22:49:15.847Z,20.52
2022-11-18T22:51:44.979Z,17.85
2022-11-18T22:54:37.816Z,20.48
2022-11-18T22:57:03.477Z,20.40
2022-11-18T22:59:32.122Z,18.65
2022-11-18T23:02:02.239Z,19.42
2022-11-18T23:04:31.476Z,18.80
2022-11-18T23:07:00.447Z,19.98
2022-11-18T23:09:29.119Z,19.95
2022-11-18T23:12:16.288Z,19.70
2022-11-18T23:14:44.878Z,20.02
2022-11-18T23:17:13.888Z,20.63
2022-11-18T23:19:44.116Z,21.10
2022-11-18T23:22:13.655Z,18.88
2022-11-18T23:24:42.190Z,18.55
2022-11-18T23:27:11.127Z,20.65
2022-11-18T23:29:39.647Z,20.55
2022-11-18T23:32:09.798Z,19.67
2022-11-18T23:34:38.430Z,19.55
2022-11-18T23:37:07.407Z,19.30
2022-11-18T23:39:37.489Z,18.25
2022-11-18T23:42:06.576Z,19.45
2022-11-18T23:44:47.411Z,18.98
2022-11-18T23:47:16.387Z,18.52
2022-11-18T23:49:44.889Z,18.70
2022-11-18T23:52:15.107Z,16.95
2022-11-18T23:54:43.648Z,17.77
2022-11-18T23:57:12.518Z,16.98
2022-11-18T23:59:41.180Z,17.05
